sensor_id;sensor_type;location;lat;lon;timestamp;P1;durP1;ratioP1;P2;durP2;ratioP2
66487;SDS011;53304;54.550;18.526;2023-05-07T00:00:27;6.68;;;3.20;;
66487;SDS011;53304;54.550;18.526;2023-05-07T00:02:56;6.53;;;3.00;;
66487;SDS011;53304;54.550;18.526;2023-05-07T00:05:24;7.65;;;3.35;;
66487;SDS011;53304;54.550;18.526;2023-05-07T00:07:49;9.98;;;3.28;;
66487;SDS011;53304;54.550;18.526;2023-05-07T00:10:15;7.70;;;3.08;;
66487;SDS011;53304;54.550;18.526;2023-05-07T00:12:40;6.47;;;3.40;;
66487;SDS011;53304;54.550;18.526;2023-05-07T00:15:08;5.95;;;3.10;;
66487;SDS011;53304;54.550;18.526;2023-05-07T00:17:36;5.90;;;3.08;;
66487;SDS011;53304;54.550;18.526;2023-05-07T00:20:02;6.80;;;3.30;;
66487;SDS011;53304;54.550;18.526;2023-05-07T00:22:28;8.52;;;3.45;;
66487;SDS011;53304;54.550;18.526;2023-05-07T00:24:59;6.35;;;2.70;;
66487;SDS011;53304;54.550;18.526;2023-05-07T00:27:25;6.00;;;2.70;;
66487;SDS011;53304;54.550;18.526;2023-05-07T00:29:52;6.32;;;3.15;;
66487;SDS011;53304;54.550;18.526;2023-05-07T00:32:20;5.78;;;3.05;;
66487;SDS011;53304;54.550;18.526;2023-05-07T00:34:48;6.22;;;3.20;;
66487;SDS011;53304;54.550;18.526;2023-05-07T00:37:14;5.68;;;3.10;;
66487;SDS011;53304;54.550;18.526;2023-05-07T00:39:41;6.90;;;3.10;;
66487;SDS011;53304;54.550;18.526;2023-05-07T00:42:09;5.90;;;3.35;;
66487;SDS011;53304;54.550;18.526;2023-05-07T00:44:37;7.57;;;3.10;;
66487;SDS011;53304;54.550;18.526;2023-05-07T00:47:03;6.95;;;3.15;;
66487;SDS011;53304;54.550;18.526;2023-05-07T00:49:35;7.45;;;3.05;;
66487;SDS011;53304;54.550;18.526;2023-05-07T00:52:02;5.93;;;3.30;;
66487;SDS011;53304;54.550;18.526;2023-05-07T00:54:28;6.40;;;2.92;;
66487;SDS011;53304;54.550;18.526;2023-05-07T00:56:53;6.05;;;3.30;;
66487;SDS011;53304;54.550;18.526;2023-05-07T00:59:24;4.70;;;2.88;;
66487;SDS011;53304;54.550;18.526;2023-05-07T01:01:53;5.43;;;2.70;;
66487;SDS011;53304;54.550;18.526;2023-05-07T01:04:19;5.53;;;3.15;;
66487;SDS011;53304;54.550;18.526;2023-05-07T01:06:49;5.70;;;2.65;;
66487;SDS011;53304;54.550;18.526;2023-05-07T01:09:18;5.45;;;3.05;;
66487;SDS011;53304;54.550;18.526;2023-05-07T01:11:47;5.30;;;2.92;;
66487;SDS011;53304;54.550;18.526;2023-05-07T01:14:15;4.95;;;2.75;;
66487;SDS011;53304;54.550;18.526;2023-05-07T01:16:41;6.25;;;2.95;;
66487;SDS011;53304;54.550;18.526;2023-05-07T01:19:09;16.02;;;3.28;;
66487;SDS011;53304;54.550;18.526;2023-05-07T01:21:36;5.90;;;2.90;;
66487;SDS011;53304;54.550;18.526;2023-05-07T01:24:05;6.15;;;2.92;;
66487;SDS011;53304;54.550;18.526;2023-05-07T01:26:36;6.03;;;2.95;;
66487;SDS011;53304;54.550;18.526;2023-05-07T01:29:04;7.35;;;3.33;;
66487;SDS011;53304;54.550;18.526;2023-05-07T01:31:32;5.13;;;2.83;;
66487;SDS011;53304;54.550;18.526;2023-05-07T01:34:01;6.30;;;2.83;;
66487;SDS011;53304;54.550;18.526;2023-05-07T01:36:31;4.97;;;2.50;;
66487;SDS011;53304;54.550;18.526;2023-05-07T01:38:57;6.15;;;2.80;;
66487;SDS011;53304;54.550;18.526;2023-05-07T01:41:28;6.15;;;2.80;;
66487;SDS011;53304;54.550;18.526;2023-05-07T01:43:56;4.65;;;2.60;;
66487;SDS011;53304;54.550;18.526;2023-05-07T01:46:26;4.72;;;2.50;;
66487;SDS011;53304;54.550;18.526;2023-05-07T01:48:51;5.57;;;2.78;;
66487;SDS011;53304;54.550;18.526;2023-05-07T01:51:17;7.55;;;2.75;;
66487;SDS011;53304;54.550;18.526;2023-05-07T01:53:46;6.05;;;2.97;;
66487;SDS011;53304;54.550;18.526;2023-05-07T01:56:15;6.78;;;2.65;;
66487;SDS011;53304;54.550;18.526;2023-05-07T01:58:46;6.55;;;3.13;;
66487;SDS011;53304;54.550;18.526;2023-05-07T02:01:14;5.05;;;2.70;;
66487;SDS011;53304;54.550;18.526;2023-05-07T02:03:42;5.90;;;3.03;;
66487;SDS011;53304;54.550;18.526;2023-05-07T02:06:10;7.25;;;3.10;;
66487;SDS011;53304;54.550;18.526;2023-05-07T02:08:40;6.97;;;2.90;;
66487;SDS011;53304;54.550;18.526;2023-05-07T02:11:07;5.18;;;2.67;;
66487;SDS011;53304;54.550;18.526;2023-05-07T02:13:35;7.03;;;2.80;;
66487;SDS011;53304;54.550;18.526;2023-05-07T02:16:06;6.50;;;2.88;;
66487;SDS011;53304;54.550;18.526;2023-05-07T02:18:32;6.68;;;3.00;;
66487;SDS011;53304;54.550;18.526;2023-05-07T02:20:57;7.05;;;2.55;;
66487;SDS011;53304;54.550;18.526;2023-05-07T02:23:23;6.63;;;2.53;;
66487;SDS011;53304;54.550;18.526;2023-05-07T02:25:48;5.35;;;2.78;;
66487;SDS011;53304;54.550;18.526;2023-05-07T02:28:14;4.72;;;2.60;;
66487;SDS011;53304;54.550;18.526;2023-05-07T02:30:41;6.40;;;2.70;;
66487;SDS011;53304;54.550;18.526;2023-05-07T02:33:07;4.57;;;2.70;;
66487;SDS011;53304;54.550;18.526;2023-05-07T02:35:35;5.90;;;2.63;;
66487;SDS011;53304;54.550;18.526;2023-05-07T02:38:01;6.72;;;2.90;;
66487;SDS011;53304;54.550;18.526;2023-05-07T02:40:26;6.50;;;2.70;;
66487;SDS011;53304;54.550;18.526;2023-05-07T02:42:57;4.63;;;2.75;;
66487;SDS011;53304;54.550;18.526;2023-05-07T02:45:22;5.25;;;2.83;;
66487;SDS011;53304;54.550;18.526;2023-05-07T02:47:47;4.97;;;2.78;;
66487;SDS011;53304;54.550;18.526;2023-05-07T02:50:13;5.78;;;2.70;;
66487;SDS011;53304;54.550;18.526;2023-05-07T02:52:43;4.55;;;2.47;;
66487;SDS011;53304;54.550;18.526;2023-05-07T02:55:11;6.20;;;2.63;;
66487;SDS011;53304;54.550;18.526;2023-05-07T02:57:41;4.63;;;2.55;;
66487;SDS011;53304;54.550;18.526;2023-05-07T03:00:10;6.57;;;2.90;;
66487;SDS011;53304;54.550;18.526;2023-05-07T03:02:40;5.97;;;2.83;;
66487;SDS011;53304;54.550;18.526;2023-05-07T03:05:08;5.07;;;2.63;;
66487;SDS011;53304;54.550;18.526;2023-05-07T03:07:39;6.25;;;2.80;;
66487;SDS011;53304;54.550;18.526;2023-05-07T03:10:05;5.78;;;3.05;;
66487;SDS011;53304;54.550;18.526;2023-05-07T03:12:31;5.45;;;2.67;;
66487;SDS011;53304;54.550;18.526;2023-05-07T03:14:59;6.15;;;2.88;;
66487;SDS011;53304;54.550;18.526;2023-05-07T03:17:27;5.20;;;2.65;;
66487;SDS011;53304;54.550;18.526;2023-05-07T03:19:55;5.35;;;3.00;;
66487;SDS011;53304;54.550;18.526;2023-05-07T03:22:20;5.65;;;2.67;;
66487;SDS011;53304;54.550;18.526;2023-05-07T03:24:48;5.88;;;2.80;;
66487;SDS011;53304;54.550;18.526;2023-05-07T03:27:16;6.20;;;2.78;;
66487;SDS011;53304;54.550;18.526;2023-05-07T03:29:43;6.68;;;3.05;;
66487;SDS011;53304;54.550;18.526;2023-05-07T03:32:09;4.63;;;2.53;;
66487;SDS011;53304;54.550;18.526;2023-05-07T03:34:36;5.70;;;2.90;;
66487;SDS011;53304;54.550;18.526;2023-05-07T03:37:04;6.55;;;2.80;;
66487;SDS011;53304;54.550;18.526;2023-05-07T03:39:32;7.10;;;3.03;;
66487;SDS011;53304;54.550;18.526;2023-05-07T03:41:57;8.32;;;3.13;;
66487;SDS011;53304;54.550;18.526;2023-05-07T03:44:23;6.57;;;3.35;;
66487;SDS011;53304;54.550;18.526;2023-05-07T03:46:48;5.68;;;3.22;;
66487;SDS011;53304;54.550;18.526;2023-05-07T03:49:14;4.82;;;2.70;;
66487;SDS011;53304;54.550;18.526;2023-05-07T03:51:41;5.43;;;2.88;;
66487;SDS011;53304;54.550;18.526;2023-05-07T03:54:07;8.70;;;3.20;;
66487;SDS011;53304;54.550;18.526;2023-05-07T03:56:35;5.10;;;2.72;;
66487;SDS011;53304;54.550;18.526;2023-05-07T03:59:03;7.55;;;3.58;;
66487;SDS011;53304;54.550;18.526;2023-05-07T04:01:28;5.68;;;3.03;;
66487;SDS011;53304;54.550;18.526;2023-05-07T04:03:54;5.45;;;3.28;;
66487;SDS011;53304;54.550;18.526;2023-05-07T04:06:19;6.85;;;2.90;;
66487;SDS011;53304;54.550;18.526;2023-05-07T04:08:44;6.03;;;3.15;;
66487;SDS011;53304;54.550;18.526;2023-05-07T04:11:10;5.97;;;3.05;;
66487;SDS011;53304;54.550;18.526;2023-05-07T04:13:35;7.10;;;3.38;;
66487;SDS011;53304;54.550;18.526;2023-05-07T04:16:01;5.85;;;3.10;;
66487;SDS011;53304;54.550;18.526;2023-05-07T04:18:28;5.50;;;3.20;;
66487;SDS011;53304;54.550;18.526;2023-05-07T04:20:53;6.65;;;3.00;;
66487;SDS011;53304;54.550;18.526;2023-05-07T04:23:21;6.63;;;3.40;;
66487;SDS011;53304;54.550;18.526;2023-05-07T04:25:46;5.63;;;2.95;;
66487;SDS011;53304;54.550;18.526;2023-05-07T04:28:15;7.65;;;3.00;;
66487;SDS011;53304;54.550;18.526;2023-05-07T04:30:40;6.22;;;2.90;;
66487;SDS011;53304;54.550;18.526;2023-05-07T04:33:10;7.40;;;3.30;;
66487;SDS011;53304;54.550;18.526;2023-05-07T04:35:36;6.47;;;2.95;;
66487;SDS011;53304;54.550;18.526;2023-05-07T04:38:06;6.30;;;2.80;;
66487;SDS011;53304;54.550;18.526;2023-05-07T04:40:32;6.45;;;3.20;;
66487;SDS011;53304;54.550;18.526;2023-05-07T04:42:57;7.15;;;2.80;;
66487;SDS011;53304;54.550;18.526;2023-05-07T04:45:25;6.95;;;2.92;;
66487;SDS011;53304;54.550;18.526;2023-05-07T04:47:50;8.10;;;3.25;;
66487;SDS011;53304;54.550;18.526;2023-05-07T04:50:18;4.75;;;2.75;;
66487;SDS011;53304;54.550;18.526;2023-05-07T04:52:44;5.90;;;3.05;;
66487;SDS011;53304;54.550;18.526;2023-05-07T04:55:12;5.70;;;3.17;;
66487;SDS011;53304;54.550;18.526;2023-05-07T04:57:37;4.85;;;2.80;;
66487;SDS011;53304;54.550;18.526;2023-05-07T05:00:05;5.53;;;2.83;;
66487;SDS011;53304;54.550;18.526;2023-05-07T05:02:39;7.10;;;2.83;;
66487;SDS011;53304;54.550;18.526;2023-05-07T05:05:07;9.05;;;3.35;;
66487;SDS011;53304;54.550;18.526;2023-05-07T05:07:32;5.63;;;3.03;;
66487;SDS011;53304;54.550;18.526;2023-05-07T05:10:03;6.72;;;3.30;;
66487;SDS011;53304;54.550;18.526;2023-05-07T05:12:30;6.35;;;3.10;;
66487;SDS011;53304;54.550;18.526;2023-05-07T05:14:58;6.25;;;3.00;;
66487;SDS011;53304;54.550;18.526;2023-05-07T05:17:25;6.20;;;2.90;;
66487;SDS011;53304;54.550;18.526;2023-05-07T05:19:53;6.40;;;3.17;;
66487;SDS011;53304;54.550;18.526;2023-05-07T05:22:23;5.22;;;3.13;;
66487;SDS011;53304;54.550;18.526;2023-05-07T05:24:51;7.85;;;3.10;;
66487;SDS011;53304;54.550;18.526;2023-05-07T05:27:17;5.85;;;3.05;;
66487;SDS011;53304;54.550;18.526;2023-05-07T05:29:44;6.40;;;3.20;;
66487;SDS011;53304;54.550;18.526;2023-05-07T05:32:12;14.05;;;3.45;;
66487;SDS011;53304;54.550;18.526;2023-05-07T05:34:40;6.72;;;2.97;;
66487;SDS011;53304;54.550;18.526;2023-05-07T05:37:08;7.80;;;3.40;;
66487;SDS011;53304;54.550;18.526;2023-05-07T05:39:33;6.35;;;3.45;;
66487;SDS011;53304;54.550;18.526;2023-05-07T05:41:59;5.90;;;3.03;;
66487;SDS011;53304;54.550;18.526;2023-05-07T05:44:27;10.27;;;3.22;;
66487;SDS011;53304;54.550;18.526;2023-05-07T05:46:52;7.28;;;3.20;;
66487;SDS011;53304;54.550;18.526;2023-05-07T05:49:20;10.20;;;3.58;;
66487;SDS011;53304;54.550;18.526;2023-05-07T05:51:48;9.20;;;3.15;;
66487;SDS011;53304;54.550;18.526;2023-05-07T05:54:16;6.38;;;2.90;;
66487;SDS011;53304;54.550;18.526;2023-05-07T05:56:41;5.68;;;3.00;;
66487;SDS011;53304;54.550;18.526;2023-05-07T05:59:09;6.40;;;2.95;;
66487;SDS011;53304;54.550;18.526;2023-05-07T06:01:35;5.63;;;2.78;;
66487;SDS011;53304;54.550;18.526;2023-05-07T06:04:05;8.57;;;2.92;;
66487;SDS011;53304;54.550;18.526;2023-05-07T06:06:33;5.45;;;2.65;;
66487;SDS011;53304;54.550;18.526;2023-05-07T06:08:58;6.78;;;2.70;;
66487;SDS011;53304;54.550;18.526;2023-05-07T06:11:26;6.45;;;2.67;;
66487;SDS011;53304;54.550;18.526;2023-05-07T06:13:51;5.85;;;2.85;;
66487;SDS011;53304;54.550;18.526;2023-05-07T06:16:19;4.72;;;2.40;;
66487;SDS011;53304;54.550;18.526;2023-05-07T06:18:45;4.07;;;2.50;;
66487;SDS011;53304;54.550;18.526;2023-05-07T06:21:14;4.40;;;2.47;;
66487;SDS011;53304;54.550;18.526;2023-05-07T06:23:40;7.38;;;2.90;;
66487;SDS011;53304;54.550;18.526;2023-05-07T06:26:08;4.72;;;2.50;;
66487;SDS011;53304;54.550;18.526;2023-05-07T06:28:33;5.38;;;2.53;;
66487;SDS011;53304;54.550;18.526;2023-05-07T06:31:13;5.45;;;2.58;;
66487;SDS011;53304;54.550;18.526;2023-05-07T06:33:43;5.25;;;2.75;;
66487;SDS011;53304;54.550;18.526;2023-05-07T06:36:09;5.30;;;2.53;;
66487;SDS011;53304;54.550;18.526;2023-05-07T06:38:35;7.50;;;2.50;;
66487;SDS011;53304;54.550;18.526;2023-05-07T06:41:03;4.07;;;2.28;;
66487;SDS011;53304;54.550;18.526;2023-05-07T06:43:28;5.18;;;2.40;;
66487;SDS011;53304;54.550;18.526;2023-05-07T06:45:54;6.55;;;2.60;;
66487;SDS011;53304;54.550;18.526;2023-05-07T06:48:19;10.90;;;2.60;;
66487;SDS011;53304;54.550;18.526;2023-05-07T06:50:47;7.38;;;2.45;;
66487;SDS011;53304;54.550;18.526;2023-05-07T06:53:17;5.40;;;2.47;;
66487;SDS011;53304;54.550;18.526;2023-05-07T06:55:45;7.68;;;2.55;;
66487;SDS011;53304;54.550;18.526;2023-05-07T06:58:15;6.55;;;2.33;;
66487;SDS011;53304;54.550;18.526;2023-05-07T07:00:43;4.93;;;2.20;;
66487;SDS011;53304;54.550;18.526;2023-05-07T07:03:11;3.95;;;2.15;;
66487;SDS011;53304;54.550;18.526;2023-05-07T07:05:36;4.70;;;2.22;;
66487;SDS011;53304;54.550;18.526;2023-05-07T07:08:05;4.43;;;2.28;;
66487;SDS011;53304;54.550;18.526;2023-05-07T07:10:35;5.32;;;2.17;;
66487;SDS011;53304;54.550;18.526;2023-05-07T07:13:03;4.68;;;2.40;;
66487;SDS011;53304;54.550;18.526;2023-05-07T07:15:28;3.80;;;2.20;;
66487;SDS011;53304;54.550;18.526;2023-05-07T07:17:58;4.82;;;2.22;;
66487;SDS011;53304;54.550;18.526;2023-05-07T07:20:26;4.72;;;2.08;;
66487;SDS011;53304;54.550;18.526;2023-05-07T07:22:51;5.53;;;2.50;;
66487;SDS011;53304;54.550;18.526;2023-05-07T07:25:17;4.43;;;2.35;;
66487;SDS011;53304;54.550;18.526;2023-05-07T07:27:45;4.20;;;2.10;;
66487;SDS011;53304;54.550;18.526;2023-05-07T07:30:10;4.25;;;2.15;;
66487;SDS011;53304;54.550;18.526;2023-05-07T07:32:45;3.75;;;2.13;;
66487;SDS011;53304;54.550;18.526;2023-05-07T07:35:13;5.05;;;2.20;;
66487;SDS011;53304;54.550;18.526;2023-05-07T07:37:38;5.65;;;2.00;;
66487;SDS011;53304;54.550;18.526;2023-05-07T07:40:06;5.97;;;2.25;;
66487;SDS011;53304;54.550;18.526;2023-05-07T07:42:32;3.55;;;2.20;;
66487;SDS011;53304;54.550;18.526;2023-05-07T07:44:59;5.57;;;2.40;;
66487;SDS011;53304;54.550;18.526;2023-05-07T07:47:27;4.78;;;2.17;;
66487;SDS011;53304;54.550;18.526;2023-05-07T07:49:53;3.90;;;2.22;;
66487;SDS011;53304;54.550;18.526;2023-05-07T07:52:18;4.60;;;1.98;;
66487;SDS011;53304;54.550;18.526;2023-05-07T07:54:44;5.32;;;2.38;;
66487;SDS011;53304;54.550;18.526;2023-05-07T07:57:10;4.10;;;1.90;;
66487;SDS011;53304;54.550;18.526;2023-05-07T07:59:35;5.22;;;2.20;;
66487;SDS011;53304;54.550;18.526;2023-05-07T08:02:00;6.30;;;2.22;;
66487;SDS011;53304;54.550;18.526;2023-05-07T08:04:26;3.92;;;2.00;;
66487;SDS011;53304;54.550;18.526;2023-05-07T08:06:55;3.92;;;1.77;;
66487;SDS011;53304;54.550;18.526;2023-05-07T08:09:23;4.93;;;2.38;;
66487;SDS011;53304;54.550;18.526;2023-05-07T08:11:53;5.93;;;2.17;;
66487;SDS011;53304;54.550;18.526;2023-05-07T08:14:19;8.30;;;2.45;;
66487;SDS011;53304;54.550;18.526;2023-05-07T08:16:44;5.18;;;2.33;;
66487;SDS011;53304;54.550;18.526;2023-05-07T08:19:12;3.95;;;2.10;;
66487;SDS011;53304;54.550;18.526;2023-05-07T08:21:38;4.38;;;1.92;;
66487;SDS011;53304;54.550;18.526;2023-05-07T08:24:07;3.92;;;1.98;;
66487;SDS011;53304;54.550;18.526;2023-05-07T08:26:32;4.25;;;2.28;;
66487;SDS011;53304;54.550;18.526;2023-05-07T08:28:58;7.13;;;1.95;;
66487;SDS011;53304;54.550;18.526;2023-05-07T08:31:23;13.30;;;3.25;;
66487;SDS011;53304;54.550;18.526;2023-05-07T08:33:51;19.85;;;3.25;;
66487;SDS011;53304;54.550;18.526;2023-05-07T08:36:18;10.45;;;2.90;;
66487;SDS011;53304;54.550;18.526;2023-05-07T08:38:44;12.43;;;3.03;;
66487;SDS011;53304;54.550;18.526;2023-05-07T08:41:14;9.85;;;3.28;;
66487;SDS011;53304;54.550;18.526;2023-05-07T08:43:40;6.53;;;2.20;;
66487;SDS011;53304;54.550;18.526;2023-05-07T08:46:06;8.15;;;2.83;;
66487;SDS011;53304;54.550;18.526;2023-05-07T08:48:34;11.20;;;2.80;;
66487;SDS011;53304;54.550;18.526;2023-05-07T08:51:00;7.55;;;2.40;;
66487;SDS011;53304;54.550;18.526;2023-05-07T08:53:30;10.05;;;2.60;;
66487;SDS011;53304;54.550;18.526;2023-05-07T08:56:00;6.88;;;2.50;;
66487;SDS011;53304;54.550;18.526;2023-05-07T08:58:28;11.10;;;2.83;;
66487;SDS011;53304;54.550;18.526;2023-05-07T09:00:53;9.52;;;2.42;;
66487;SDS011;53304;54.550;18.526;2023-05-07T09:03:21;11.70;;;2.78;;
66487;SDS011;53304;54.550;18.526;2023-05-07T09:05:49;16.48;;;3.70;;
66487;SDS011;53304;54.550;18.526;2023-05-07T09:08:15;16.02;;;3.03;;
66487;SDS011;53304;54.550;18.526;2023-05-07T09:10:42;12.85;;;2.83;;
66487;SDS011;53304;54.550;18.526;2023-05-07T09:13:08;8.48;;;2.50;;
66487;SDS011;53304;54.550;18.526;2023-05-07T09:15:38;9.00;;;2.92;;
66487;SDS011;53304;54.550;18.526;2023-05-07T09:18:03;8.52;;;2.38;;
66487;SDS011;53304;54.550;18.526;2023-05-07T09:20:34;8.38;;;2.28;;
66487;SDS011;53304;54.550;18.526;2023-05-07T09:23:04;7.00;;;2.10;;
66487;SDS011;53304;54.550;18.526;2023-05-07T09:25:30;7.13;;;2.40;;
66487;SDS011;53304;54.550;18.526;2023-05-07T09:27:56;9.65;;;2.30;;
66487;SDS011;53304;54.550;18.526;2023-05-07T09:30:27;7.65;;;2.30;;
66487;SDS011;53304;54.550;18.526;2023-05-07T09:32:53;9.75;;;2.33;;
66487;SDS011;53304;54.550;18.526;2023-05-07T09:35:19;9.30;;;2.38;;
66487;SDS011;53304;54.550;18.526;2023-05-07T09:37:46;5.57;;;2.20;;
66487;SDS011;53304;54.550;18.526;2023-05-07T09:40:24;5.35;;;2.00;;
66487;SDS011;53304;54.550;18.526;2023-05-07T09:42:53;8.35;;;2.35;;
66487;SDS011;53304;54.550;18.526;2023-05-07T09:47:53;7.93;;;2.15;;
66487;SDS011;53304;54.550;18.526;2023-05-07T09:50:22;4.43;;;1.90;;
66487;SDS011;53304;54.550;18.526;2023-05-07T09:52:52;4.25;;;1.98;;
66487;SDS011;53304;54.550;18.526;2023-05-07T09:55:24;5.15;;;1.98;;
66487;SDS011;53304;54.550;18.526;2023-05-07T09:57:50;9.05;;;2.10;;
66487;SDS011;53304;54.550;18.526;2023-05-07T10:00:20;6.60;;;1.95;;
66487;SDS011;53304;54.550;18.526;2023-05-07T10:02:51;4.70;;;1.92;;
66487;SDS011;53304;54.550;18.526;2023-05-07T10:05:21;5.65;;;2.22;;
66487;SDS011;53304;54.550;18.526;2023-05-07T10:07:50;4.32;;;2.03;;
66487;SDS011;53304;54.550;18.526;2023-05-07T10:10:18;3.67;;;1.77;;
66487;SDS011;53304;54.550;18.526;2023-05-07T10:12:44;6.38;;;1.98;;
66487;SDS011;53304;54.550;18.526;2023-05-07T10:15:10;5.45;;;2.00;;
66487;SDS011;53304;54.550;18.526;2023-05-07T10:17:36;5.18;;;1.80;;
66487;SDS011;53304;54.550;18.526;2023-05-07T10:20:03;5.45;;;2.10;;
66487;SDS011;53304;54.550;18.526;2023-05-07T10:22:33;3.42;;;1.70;;
66487;SDS011;53304;54.550;18.526;2023-05-07T10:25:05;5.88;;;2.10;;
66487;SDS011;53304;54.550;18.526;2023-05-07T10:27:32;3.35;;;1.70;;
66487;SDS011;53304;54.550;18.526;2023-05-07T10:33:10;4.30;;;1.98;;
66487;SDS011;53304;54.550;18.526;2023-05-07T10:35:42;5.15;;;1.80;;
66487;SDS011;53304;54.550;18.526;2023-05-07T10:38:11;3.72;;;1.90;;
66487;SDS011;53304;54.550;18.526;2023-05-07T10:40:39;4.38;;;1.65;;
66487;SDS011;53304;54.550;18.526;2023-05-07T10:43:05;6.10;;;1.70;;
66487;SDS011;53304;54.550;18.526;2023-05-07T10:45:31;4.18;;;1.92;;
66487;SDS011;53304;54.550;18.526;2023-05-07T10:48:06;3.75;;;1.60;;
66487;SDS011;53304;54.550;18.526;2023-05-07T10:50:38;2.78;;;1.63;;
66487;SDS011;53304;54.550;18.526;2023-05-07T10:55:42;4.15;;;1.80;;
66487;SDS011;53304;54.550;18.526;2023-05-07T10:58:26;12.07;;;1.70;;
66487;SDS011;53304;54.550;18.526;2023-05-07T11:00:56;2.85;;;1.65;;
66487;SDS011;53304;54.550;18.526;2023-05-07T11:03:23;5.35;;;1.73;;
66487;SDS011;53304;54.550;18.526;2023-05-07T11:05:50;3.30;;;1.67;;
66487;SDS011;53304;54.550;18.526;2023-05-07T11:11:17;5.22;;;1.88;;
66487;SDS011;53304;54.550;18.526;2023-05-07T11:13:46;4.20;;;1.90;;
66487;SDS011;53304;54.550;18.526;2023-05-07T11:16:19;4.15;;;2.03;;
66487;SDS011;53304;54.550;18.526;2023-05-07T11:18:49;3.90;;;1.90;;
66487;SDS011;53304;54.550;18.526;2023-05-07T11:21:40;4.70;;;2.00;;
66487;SDS011;53304;54.550;18.526;2023-05-07T11:24:10;8.35;;;2.38;;
66487;SDS011;53304;54.550;18.526;2023-05-07T11:26:46;3.35;;;2.00;;
66487;SDS011;53304;54.550;18.526;2023-05-07T11:29:21;4.95;;;2.40;;
66487;SDS011;53304;54.550;18.526;2023-05-07T11:31:51;4.97;;;2.15;;
66487;SDS011;53304;54.550;18.526;2023-05-07T11:34:20;6.65;;;2.40;;
66487;SDS011;53304;54.550;18.526;2023-05-07T11:36:47;6.78;;;2.60;;
66487;SDS011;53304;54.550;18.526;2023-05-07T11:39:26;6.38;;;2.50;;
66487;SDS011;53304;54.550;18.526;2023-05-07T11:41:55;7.63;;;2.47;;
66487;SDS011;53304;54.550;18.526;2023-05-07T11:44:20;5.95;;;2.50;;
66487;SDS011;53304;54.550;18.526;2023-05-07T11:46:51;6.90;;;2.80;;
66487;SDS011;53304;54.550;18.526;2023-05-07T11:49:18;4.70;;;2.33;;
66487;SDS011;53304;54.550;18.526;2023-05-07T11:51:44;5.53;;;2.60;;
66487;SDS011;53304;54.550;18.526;2023-05-07T11:54:14;6.30;;;2.42;;
66487;SDS011;53304;54.550;18.526;2023-05-07T11:56:43;7.65;;;2.70;;
66487;SDS011;53304;54.550;18.526;2023-05-07T11:59:10;6.53;;;2.90;;
66487;SDS011;53304;54.550;18.526;2023-05-07T12:01:35;8.30;;;3.05;;
66487;SDS011;53304;54.550;18.526;2023-05-07T12:04:02;5.55;;;2.58;;
66487;SDS011;53304;54.550;18.526;2023-05-07T12:06:35;11.27;;;3.13;;
66487;SDS011;53304;54.550;18.526;2023-05-07T12:09:02;5.07;;;2.70;;
66487;SDS011;53304;54.550;18.526;2023-05-07T12:11:29;6.25;;;2.45;;
66487;SDS011;53304;54.550;18.526;2023-05-07T12:13:59;5.65;;;2.50;;
66487;SDS011;53304;54.550;18.526;2023-05-07T12:16:26;6.30;;;2.83;;
66487;SDS011;53304;54.550;18.526;2023-05-07T12:18:55;6.93;;;2.75;;
66487;SDS011;53304;54.550;18.526;2023-05-07T12:21:23;6.53;;;2.53;;
66487;SDS011;53304;54.550;18.526;2023-05-07T12:23:50;5.70;;;2.60;;
66487;SDS011;53304;54.550;18.526;2023-05-07T12:26:20;6.80;;;2.78;;
66487;SDS011;53304;54.550;18.526;2023-05-07T12:28:46;5.35;;;2.35;;
66487;SDS011;53304;54.550;18.526;2023-05-07T12:31:11;5.50;;;2.70;;
66487;SDS011;53304;54.550;18.526;2023-05-07T12:33:41;5.45;;;2.67;;
66487;SDS011;53304;54.550;18.526;2023-05-07T12:36:07;5.22;;;2.35;;
66487;SDS011;53304;54.550;18.526;2023-05-07T12:38:38;5.68;;;2.63;;
66487;SDS011;53304;54.550;18.526;2023-05-07T12:43:32;6.63;;;2.55;;
66487;SDS011;53304;54.550;18.526;2023-05-07T12:45:58;5.45;;;2.38;;
66487;SDS011;53304;54.550;18.526;2023-05-07T12:48:31;6.97;;;2.15;;
66487;SDS011;53304;54.550;18.526;2023-05-07T12:51:03;4.88;;;2.40;;
66487;SDS011;53304;54.550;18.526;2023-05-07T12:53:30;7.53;;;2.30;;
66487;SDS011;53304;54.550;18.526;2023-05-07T12:55:58;5.50;;;2.40;;
66487;SDS011;53304;54.550;18.526;2023-05-07T13:00:53;7.97;;;2.15;;
66487;SDS011;53304;54.550;18.526;2023-05-07T13:05:57;4.90;;;2.30;;
66487;SDS011;53304;54.550;18.526;2023-05-07T13:08:34;6.38;;;2.40;;
66487;SDS011;53304;54.550;18.526;2023-05-07T13:11:02;5.13;;;2.17;;
66487;SDS011;53304;54.550;18.526;2023-05-07T13:13:33;8.30;;;2.40;;
66487;SDS011;53304;54.550;18.526;2023-05-07T13:16:10;5.30;;;2.30;;
66487;SDS011;53304;54.550;18.526;2023-05-07T13:18:38;4.88;;;2.13;;
66487;SDS011;53304;54.550;18.526;2023-05-07T13:21:05;4.88;;;2.45;;
66487;SDS011;53304;54.550;18.526;2023-05-07T13:23:30;8.18;;;2.92;;
66487;SDS011;53304;54.550;18.526;2023-05-07T13:25:58;9.93;;;2.80;;
66487;SDS011;53304;54.550;18.526;2023-05-07T13:28:26;10.15;;;2.80;;
66487;SDS011;53304;54.550;18.526;2023-05-07T13:30:52;9.10;;;2.40;;
66487;SDS011;53304;54.550;18.526;2023-05-07T13:33:18;7.28;;;2.47;;
66487;SDS011;53304;54.550;18.526;2023-05-07T13:35:46;7.32;;;2.65;;
66487;SDS011;53304;54.550;18.526;2023-05-07T13:38:11;3.35;;;2.08;;
66487;SDS011;53304;54.550;18.526;2023-05-07T13:40:37;5.18;;;1.80;;
66487;SDS011;53304;54.550;18.526;2023-05-07T13:43:05;5.63;;;2.10;;
66487;SDS011;53304;54.550;18.526;2023-05-07T13:45:31;6.25;;;2.10;;
66487;SDS011;53304;54.550;18.526;2023-05-07T13:48:02;4.45;;;1.95;;
66487;SDS011;53304;54.550;18.526;2023-05-07T13:50:30;4.63;;;2.20;;
66487;SDS011;53304;54.550;18.526;2023-05-07T13:52:56;4.15;;;2.10;;
66487;SDS011;53304;54.550;18.526;2023-05-07T13:55:21;5.80;;;2.25;;
66487;SDS011;53304;54.550;18.526;2023-05-07T13:57:53;4.80;;;2.25;;
66487;SDS011;53304;54.550;18.526;2023-05-07T14:00:26;3.85;;;2.13;;
66487;SDS011;53304;54.550;18.526;2023-05-07T14:02:56;4.10;;;2.08;;
66487;SDS011;53304;54.550;18.526;2023-05-07T14:05:22;6.30;;;2.03;;
66487;SDS011;53304;54.550;18.526;2023-05-07T14:07:51;3.95;;;2.10;;
66487;SDS011;53304;54.550;18.526;2023-05-07T14:10:19;4.75;;;2.10;;
66487;SDS011;53304;54.550;18.526;2023-05-07T14:12:45;4.22;;;2.00;;
66487;SDS011;53304;54.550;18.526;2023-05-07T14:15:10;4.53;;;2.03;;
66487;SDS011;53304;54.550;18.526;2023-05-07T14:17:38;5.63;;;2.10;;
66487;SDS011;53304;54.550;18.526;2023-05-07T14:20:03;4.00;;;1.95;;
66487;SDS011;53304;54.550;18.526;2023-05-07T14:22:31;4.13;;;1.90;;
66487;SDS011;53304;54.550;18.526;2023-05-07T14:25:03;3.88;;;1.98;;
66487;SDS011;53304;54.550;18.526;2023-05-07T14:27:32;4.72;;;1.98;;
66487;SDS011;53304;54.550;18.526;2023-05-07T14:30:02;4.57;;;1.88;;
66487;SDS011;53304;54.550;18.526;2023-05-07T14:32:30;3.08;;;1.80;;
66487;SDS011;53304;54.550;18.526;2023-05-07T14:35:01;7.07;;;2.15;;
66487;SDS011;53304;54.550;18.526;2023-05-07T14:37:26;4.75;;;2.38;;
66487;SDS011;53304;54.550;18.526;2023-05-07T14:39:56;3.92;;;1.90;;
66487;SDS011;53304;54.550;18.526;2023-05-07T14:42:24;4.75;;;2.20;;
66487;SDS011;53304;54.550;18.526;2023-05-07T14:44:50;4.97;;;2.30;;
66487;SDS011;53304;54.550;18.526;2023-05-07T14:47:15;4.80;;;2.22;;
66487;SDS011;53304;54.550;18.526;2023-05-07T14:49:43;4.82;;;1.88;;
66487;SDS011;53304;54.550;18.526;2023-05-07T14:52:11;3.63;;;1.90;;
66487;SDS011;53304;54.550;18.526;2023-05-07T14:54:37;7.45;;;2.20;;